Time;durP1;ratioP1;P1;durP2;ratioP2;P2;SDS_P1;SDS_P2;PMS_P1;PMS_P2;Temp;Humidity;BMP_temperature;BMP_pressure;BME280_temperature;BME280_humidity;BME280_pressure;Samples;Min_cycle;Max_cycle;Signal;HPM_P1;HPM_P2
2021/03/01 00:00:58;;;;;;;;;;;;;;;1.31;76.12;99467.94;4990887;28;20353;-79
2021/03/01 00:03:23;;;;;;;18.77;10.18;;;;;;;1.22;76.32;99453.81;4992133;28;19914;-76
2021/03/01 00:05:49;;;;;;;;;;;;;;;1.06;77.12;99465.75;4991304;28;20030;-76
2021/03/01 00:08:14;;;;;;;14.70;8.20;;;;;;;1.10;76.98;99468.03;4992089;28;19940;-79
2021/03/01 00:10:39;;;;;;;;;;;;;;;1.22;76.83;99463.75;4992703;28;20046;-77
2021/03/01 00:13:04;;;;;;;14.73;8.38;;;;;;;1.16;76.63;99464.56;4991208;28;19918;-76
2021/03/01 00:15:30;;;;;;;18.75;9.55;;;;;;;1.10;76.88;99459.97;4992514;28;20027;-76
2021/03/01 00:17:55;;;;;;;14.55;8.98;;;;;;;1.15;77.18;99463.72;4992020;28;20018;-75
2021/03/01 00:20:21;;;;;;;17.13;10.63;;;;;;;1.07;77.11;99462.00;4992239;28;20383;-75
2021/03/01 00:22:46;;;;;;;15.57;10.73;;;;;;;1.16;76.83;99464.56;4991929;28;20061;-78
2021/03/01 00:25:13;;;;;;;17.58;9.43;;;;;;;1.01;77.11;99470.88;4991667;28;20382;-80
2021/03/01 00:27:39;;;;;;;15.30;9.02;;;;;;;1.06;76.85;99465.75;4992424;28;20109;-75
2021/03/01 00:30:07;;;;;;;16.50;9.90;;;;;;;1.12;76.96;99453.34;4992216;28;20073;-75
2021/03/01 00:32:32;;;;;;;19.55;12.10;;;;;;;0.91;76.81;99461.47;4992286;28;20069;-75
2021/03/01 00:34:58;;;;;;;14.55;9.35;;;;;;;0.71;77.95;99465.88;4992088;28;20050;-75
2021/03/01 00:37:23;;;;;;;18.70;11.38;;;;;;;0.84;77.83;99461.44;4992626;28;20057;-76
2021/03/01 00:39:49;;;;;;;22.42;11.70;;;;;;;0.69;78.48;99467.94;4992289;28;20030;-78
2021/03/01 00:42:14;;;;;;;23.33;11.45;;;;;;;0.78;77.88;99474.84;4995564;28;20068;-75
2021/03/01 00:44:40;;;;;;;;;;;;;;;0.67;78.66;99465.44;4995880;28;20100;-76
2021/03/01 00:47:06;;;;;;;21.60;11.65;;;;;;;0.85;78.29;99470.31;4996957;28;19902;-76
2021/03/01 00:49:31;;;;;;;26.25;11.52;;;;;;;0.88;77.86;99475.31;5000653;28;20034;-76
2021/03/01 00:51:57;;;;;;;25.05;11.85;;;;;;;0.75;78.10;99473.34;4995771;28;20475;-77
2021/03/01 00:54:22;;;;;;;;;;;;;;;0.65;78.80;99472.88;4996038;28;20105;-77
2021/03/01 00:56:48;;;;;;;16.27;9.43;;;;;;;0.87;78.07;99470.97;4994791;28;20015;-76
2021/03/01 00:59:14;;;;;;;20.80;11.35;;;;;;;0.71;78.17;99466.72;5027002;28;20041;-75
2021/03/01 01:01:39;;;;;;;17.02;9.15;;;;;;;0.80;78.14;99468.22;4983611;28;20015;-76
2021/03/01 01:04:05;;;;;;;16.88;10.63;;;;;;;0.67;78.75;99465.44;4976277;28;20042;-75
2021/03/01 01:06:30;;;;;;;;;;;;;;;0.67;78.80;99460.03;4976651;28;20030;-77
2021/03/01 01:08:56;;;;;;;15.73;11.13;;;;;;;0.62;78.84;99446.34;4975937;28;19965;-76
2021/03/01 01:11:21;;;;;;;;;;;;;;;0.71;78.90;99464.03;4977544;28;20857;-80
2021/03/01 01:13:46;;;;;;;16.48;9.45;;;;;;;0.63;79.10;99453.38;4976937;28;19914;-76
2021/03/01 01:16:12;;;;;;;;;;;;;;;0.62;79.07;99449.03;4978433;28;20029;-75
2021/03/01 01:18:37;;;;;;;17.38;8.65;;;;;;;0.48;79.92;99448.09;4980014;28;19918;-76
2021/03/01 01:21:03;;;;;;;15.32;9.25;;;;;;;0.44;79.86;99443.28;4980258;28;20111;-77
2021/03/01 01:23:28;;;;;;;20.52;9.95;;;;;;;0.40;80.21;99452.78;4975001;28;20031;-76
2021/03/01 01:25:54;;;;;;;16.40;10.15;;;;;;;0.26;80.63;99442.91;4975881;28;20469;-76
2021/03/01 01:28:19;;;;;;;;;;;;;;;0.25;80.72;99454.72;4976185;28;20113;-76
2021/03/01 01:30:45;;;;;;;17.00;9.43;;;;;;;0.27;80.80;99452.66;4974380;28;19922;-78
2021/03/01 01:33:10;;;;;;;17.58;9.23;;;;;;;0.16;80.86;99450.47;4975667;28;20027;-77
2021/03/01 01:35:36;;;;;;;15.10;9.38;;;;;;;-0.04;81.39;99450.28;4974887;28;20026;-76
2021/03/01 01:38:01;;;;;;;;;;;;;;;0.15;81.31;99449.66;4975805;28;20054;-76
2021/03/01 01:40:27;;;;;;;22.35;10.25;;;;;;;0.05;81.22;99448.28;4975017;28;19914;-76
2021/03/01 01:42:52;;;;;;;;;;;;;;;0.12;81.28;99460.78;4976114;28;20376;-76
2021/03/01 01:45:21;;;;;;;16.02;8.70;;;;;;;0.13;81.22;99448.97;4974902;28;20371;-77
2021/03/01 01:47:49;;;;;;;17.00;8.48;;;;;;;0.08;81.32;99446.06;4991523;28;20034;-77
2021/03/01 01:50:15;;;;;;;15.85;8.82;;;;;;;0.22;80.34;99449.72;4977817;28;20026;-75
2021/03/01 01:52:41;;;;;;;19.02;10.48;;;;;;;0.14;80.96;99447.97;4995706;28;20034;-79
2021/03/01 01:55:08;;;;;;;18.02;9.30;;;;;;;0.07;80.91;99438.16;4994969;28;20108;-81
2021/03/01 01:57:36;;;;;;;19.40;9.07;;;;;;;0.00;81.25;99435.44;4996749;28;20032;-77
2021/03/01 02:00:06;;;;;;;17.02;10.23;;;;;;;-0.06;81.90;99438.84;4996131;28;20034;-76
2021/03/01 02:02:33;;;;;;;13.73;8.48;;;;;;;-0.08;81.84;99435.53;4994630;28;20023;-77
2021/03/01 02:05:04;;;;;;;15.30;8.88;;;;;;;0.00;81.57;99427.38;4993004;28;20026;-76
2021/03/01 02:07:54;;;;;;;17.73;9.55;;;;;;;0.12;81.20;99433.91;4992956;28;20026;-77
2021/03/01 02:10:29;;;;;;;17.67;9.88;;;;;;;0.14;81.19;99431.00;4993442;28;20113;-77
2021/03/01 02:13:16;;;;;;;17.10;9.45;;;;;;;0.07;81.62;99430.09;4992681;28;20022;-76
2021/03/01 02:15:50;;;;;;;18.88;10.13;;;;;;;0.14;81.13;99431.00;4993856;28;20049;-76
2021/03/01 02:18:18;;;;;;;16.50;9.82;;;;;;;-0.04;81.28;99434.13;4993969;28;20034;-82
2021/03/01 02:20:47;;;;;;;14.85;8.05;;;;;;;-0.26;82.07;99429.75;4992253;28;20022;-79
2021/03/01 02:23:14;;;;;;;15.70;9.43;;;;;;;-0.14;82.34;99421.00;4992551;28;20034;-80
2021/03/01 02:25:56;;;;;;;15.70;9.38;;;;;;;-0.16;82.32;99414.97;5024908;28;20045;-79
2021/03/01 02:28:28;;;;;;;14.45;9.77;;;;;;;-0.13;82.14;99401.19;4980516;28;20034;-77
2021/03/01 02:30:57;;;;;;;21.67;9.57;;;;;;;0.04;81.69;99409.81;4993340;28;20042;-80
2021/03/01 02:33:26;;;;;;;19.88;9.40;;;;;;;-0.15;81.79;99407.75;4982289;28;20055;-82
2021/03/01 02:36:03;;;;;;;16.13;9.25;;;;;;;-0.37;82.56;99417.63;4974385;28;20105;-81
2021/03/01 02:38:37;;;;;;;16.52;10.05;;;;;;;-0.48;83.01;99403.88;4974461;28;20035;-81
2021/03/01 02:41:05;;;;;;;16.67;9.75;;;;;;;-0.44;83.13;99418.59;4974524;28;20026;-83
2021/03/01 02:43:32;;;;;;;17.10;9.82;;;;;;;-0.37;82.61;99404.19;4975392;28;20039;-81
2021/03/01 02:45:58;;;;;;;15.55;8.90;;;;;;;-0.34;82.44;99409.19;4976905;28;20027;-81
2021/03/01 02:48:25;;;;;;;19.33;10.35;;;;;;;-0.28;82.43;99408.44;4976131;28;20109;-80
2021/03/01 02:50:52;;;;;;;19.10;9.82;;;;;;;-0.33;82.68;99402.81;4973681;28;20073;-80
2021/03/01 02:53:19;;;;;;;16.30;10.00;;;;;;;-0.28;82.64;99403.06;4973722;28;20027;-80
2021/03/01 02:55:47;;;;;;;20.65;8.18;;;;;;;-0.34;82.35;99413.72;4973876;28;20067;-78
2021/03/01 02:58:14;;;;;;;16.65;9.93;;;;;;;-0.55;83.46;99418.06;4973945;28;20031;-81
2021/03/01 03:00:40;;;;;;;15.40;9.82;;;;;;;-0.57;83.75;99424.66;4973727;28;20029;-76
2021/03/01 03:03:07;;;;;;;18.10;9.20;;;;;;;-0.74;84.24;99421.31;4973056;28;20043;-77
2021/03/01 03:05:34;;;;;;;17.67;9.70;;;;;;;-0.84;84.27;99415.41;4973947;28;20034;-84
2021/03/01 03:08:01;;;;;;;16.58;10.45;;;;;;;-0.76;83.70;99422.53;4973517;28;20034;-81
2021/03/01 03:10:27;;;;;;;22.52;10.32;;;;;;;-0.66;83.76;99412.34;4980461;28;20101;-87
2021/03/01 03:12:54;;;;;;;14.18;8.77;;;;;;;-0.58;83.28;99406.84;4993536;28;20387;-80
2021/03/01 03:15:25;;;;;;;13.43;8.40;;;;;;;-0.59;83.68;99414.06;4993156;28;20061;-78
2021/03/01 03:17:52;;;;;;;16.63;10.18;;;;;;;-0.53;83.64;99420.53;4993248;28;20042;-79
2021/03/01 03:20:18;;;;;;;18.42;8.75;;;;;;;-0.67;84.19;99419.56;4992587;28;20037;-78
2021/03/01 03:22:46;;;;;;;16.20;8.27;;;;;;;-0.67;84.33;99424.09;4992850;28;20030;-76
2021/03/01 03:25:12;;;;;;;16.55;9.27;;;;;;;-0.66;84.23;99415.84;4991529;28;20081;-79
2021/03/01 03:27:41;;;;;;;18.13;10.18;;;;;;;-0.60;84.61;99416.97;4992488;28;20454;-75
2021/03/01 03:30:10;;;;;;;17.48;9.77;;;;;;;-0.61;83.83;99400.00;4994849;28;20046;-81
2021/03/01 03:32:35;;;;;;;17.15;9.32;;;;;;;-0.69;84.01;99396.59;4996733;28;20084;-77
2021/03/01 03:35:05;;;;;;;14.98;8.65;;;;;;;-0.73;84.42;99392.63;5024500;28;20765;-76
2021/03/01 03:37:53;;;;;;;14.27;9.77;;;;;;;-0.83;84.68;99386.69;4991041;28;20030;-78
2021/03/01 03:40:20;;;;;;;17.55;8.88;;;;;;;-0.78;84.64;99392.31;4992273;28;20089;-76
2021/03/01 03:42:46;;;;;;;15.93;9.75;;;;;;;-0.63;84.62;99401.22;4992419;28;20101;-76
2021/03/01 03:45:17;;;;;;;11.90;8.80;;;;;;;-0.69;84.23;99401.97;4992563;28;20054;-75
2021/03/01 03:47:49;;;;;;;15.20;8.80;;;;;;;-0.71;84.59;99406.69;4993064;28;20045;-75
2021/03/01 03:50:15;;;;;;;13.48;8.75;;;;;;;-0.57;83.92;99400.47;4992558;28;20037;-77
2021/03/01 03:52:43;;;;;;;17.35;9.55;;;;;;;-0.82;83.60;99396.44;4992634;28;20062;-75
2021/03/01 03:55:17;;;;;;;15.38;8.43;;;;;;;-0.97;84.71;99403.66;4993008;28;20105;-76
2021/03/01 03:57:49;;;;;;;16.05;9.15;;;;;;;-1.05;85.21;99401.06;4991663;28;20028;-75
2021/03/01 04:00:18;;;;;;;17.05;10.32;;;;;;;-0.89;85.26;99400.88;4995067;28;20022;-78
2021/03/01 04:02:44;;;;;;;16.48;10.82;;;;;;;-0.90;85.07;99401.88;4995211;28;20034;-75
2021/03/01 04:05:14;;;;;;;17.30;8.43;;;;;;;-0.93;85.04;99392.34;4992376;28;20066;-76
2021/03/01 04:07:42;;;;;;;14.73;8.40;;;;;;;-0.82;85.00;99388.38;4992567;28;20109;-75
2021/03/01 04:10:09;;;;;;;15.48;8.80;;;;;;;-0.86;84.74;99392.44;4992141;28;20084;-76
2021/03/01 04:12:37;;;;;;;19.92;9.70;;;;;;;-0.82;84.64;99391.06;4992071;28;20041;-76
2021/03/01 04:15:08;;;;;;;16.20;8.48;;;;;;;-0.59;83.92;99413.22;4995208;28;20840;-74
2021/03/01 04:17:39;;;;;;;18.98;12.30;;;;;;;-0.84;84.00;99409.19;4997286;28;20093;-76
2021/03/01 04:20:07;;;;;;;22.75;13.27;;;;;;;-0.97;84.74;99411.72;4997757;28;20093;-79
2021/03/01 04:22:34;;;;;;;18.40;9.80;;;;;;;-0.88;84.62;99405.22;4999937;28;20394;-75
2021/03/01 04:25:01;;;;;;;16.02;10.00;;;;;;;-0.89;84.79;99411.63;4997319;28;20019;-75
2021/03/01 04:27:29;;;;;;;14.82;9.70;;;;;;;-0.82;84.60;99415.22;4995781;28;20030;-75
2021/03/01 04:29:56;;;;;;;16.42;10.20;;;;;;;-0.78;84.53;99413.81;4995163;28;20056;-74
2021/03/01 04:32:23;;;;;;;18.00;12.07;;;;;;;-0.87;85.00;99412.25;4995527;28;20041;-75
2021/03/01 04:34:50;;;;;;;19.42;9.52;;;;;;;-0.88;85.11;99411.44;4995522;28;20041;-75
2021/03/01 04:37:15;;;;;;;16.67;10.77;;;;;;;-0.89;85.17;99417.81;4995189;28;20027;-76
2021/03/01 04:39:41;;;;;;;15.88;8.98;;;;;;;-0.75;85.06;99413.47;4995423;28;20041;-76
2021/03/01 04:42:06;;;;;;;18.42;9.20;;;;;;;-0.93;85.03;99408.47;4995436;28;20027;-74
2021/03/01 04:44:32;;;;;;;;;;;;;;;-0.84;85.65;99414.56;4995608;28;20471;-76
2021/03/01 04:46:59;;;;;;;17.17;8.43;;;;;;;-0.86;85.44;99405.88;4995901;28;19914;-75
2021/03/01 04:49:26;;;;;;;16.58;10.68;;;;;;;-0.83;84.98;99410.88;4995450;28;20026;-77
2021/03/01 04:51:52;;;;;;;13.65;8.60;;;;;;;-1.00;85.68;99420.16;4995042;28;20033;-77
2021/03/01 04:54:20;;;;;;;16.02;9.82;;;;;;;-1.25;87.49;99408.81;4995016;28;20058;-76
2021/03/01 04:56:46;;;;;;;18.92;10.80;;;;;;;-1.10;87.25;99415.06;4995251;28;20031;-78
2021/03/01 04:59:16;;;;;;;16.70;9.70;;;;;;;-0.99;86.84;99414.56;4995000;28;20064;-78
2021/03/01 05:01:48;;;;;;;13.85;9.43;;;;;;;-0.89;86.91;99411.63;4994620;28;20046;-77
2021/03/01 05:04:14;;;;;;;18.50;8.90;;;;;;;-1.07;87.29;99410.13;4993425;28;20430;-76
2021/03/01 05:06:40;;;;;;;13.13;8.60;;;;;;;-1.00;87.87;99422.84;4994820;28;20081;-75
2021/03/01 05:09:06;;;;;;;19.20;10.35;;;;;;;-1.17;88.67;99420.31;4994479;28;20561;-75
2021/03/01 05:11:34;;;;;;;17.63;10.13;;;;;;;-1.34;89.36;99416.13;4994316;28;20368;-75
2021/03/01 05:14:05;;;;;;;16.60;8.40;;;;;;;-1.21;88.89;99421.69;4993137;28;20022;-78
2021/03/01 05:16:31;;;;;;;16.10;9.52;;;;;;;-0.95;87.70;99423.94;4993878;28;20053;-74
2021/03/01 05:18:57;;;;;;;17.75;10.45;;;;;;;-1.14;88.27;99406.53;4995030;28;20463;-74
2021/03/01 05:21:23;;;;;;;18.17;10.80;;;;;;;-1.21;88.59;99405.59;4994773;28;20491;-75
2021/03/01 05:23:49;;;;;;;14.35;8.60;;;;;;;-1.05;88.38;99419.84;4994638;28;20080;-75
2021/03/01 05:26:16;;;;;;;16.15;9.70;;;;;;;-0.86;87.29;99421.97;4994311;28;20110;-75
2021/03/01 05:28:41;;;;;;;15.70;9.38;;;;;;;-1.01;87.44;99423.84;4993221;28;20027;-75
2021/03/01 05:31:07;;;;;;;15.02;8.77;;;;;;;-1.08;87.03;99413.84;4993837;28;20061;-75
2021/03/01 05:33:33;;;;;;;18.02;10.15;;;;;;;-1.16;87.32;99421.97;4994830;28;20025;-76
2021/03/01 05:35:59;;;;;;;19.27;10.18;;;;;;;-1.24;87.48;99430.13;4995132;28;20030;-74
2021/03/01 05:38:25;;;;;;;16.85;9.60;;;;;;;-1.21;87.08;99429.75;4993447;28;20457;-76
2021/03/01 05:40:54;;;;;;;18.60;9.55;;;;;;;-1.16;87.24;99430.03;4991962;28;20105;-75
2021/03/01 05:43:25;;;;;;;18.73;10.68;;;;;;;-0.98;86.77;99434.22;4989716;28;20483;-76
2021/03/01 05:45:52;;;;;;;24.45;11.75;;;;;;;-1.26;87.76;99442.91;4992473;28;20387;-76
2021/03/01 05:48:21;;;;;;;20.40;11.15;;;;;;;-1.29;87.95;99445.94;4991777;28;20039;-75
2021/03/01 05:50:52;;;;;;;27.38;10.40;;;;;;;-1.27;87.83;99446.59;4992376;28;20034;-76
2021/03/01 05:53:19;;;;;;;19.88;10.25;;;;;;;-1.29;87.37;99443.28;4992526;28;20495;-74
2021/03/01 05:55:47;;;;;;;21.95;13.23;;;;;;;-1.21;87.81;99458.44;4993618;28;20022;-77
2021/03/01 05:58:12;;;;;;;17.27;10.63;;;;;;;-1.32;87.85;99445.47;4991323;28;20052;-74
2021/03/01 06:00:38;;;;;;;17.77;11.50;;;;;;;-1.26;87.79;99453.63;4990470;28;20096;-76
2021/03/01 06:03:04;;;;;;;17.77;10.18;;;;;;;-1.26;88.00;99460.84;4989325;28;20045;-74
2021/03/01 06:05:29;;;;;;;;;;;;;;;-1.15;87.63;99463.91;4994713;28;20169;-74
2021/03/01 06:07:56;;;;;;;17.23;9.23;;;;;;;-0.97;86.93;99460.03;4991316;28;20013;-76
2021/03/01 06:10:22;;;;;;;15.02;9.65;;;;;;;-0.75;86.12;99459.94;4990246;28;20023;-74
2021/03/01 06:12:47;;;;;;;16.50;8.90;;;;;;;-0.63;85.21;99471.06;4989733;28;20462;-75
2021/03/01 06:15:14;;;;;;;13.68;8.27;;;;;;;-0.60;84.90;99476.06;4991411;28;20038;-74
2021/03/01 06:17:39;;;;;;;22.40;8.90;;;;;;;-0.46;85.04;99475.19;4992443;28;20482;-76
2021/03/01 06:20:08;;;;;;;23.80;10.32;;;;;;;-0.53;84.54;99476.97;4992823;28;20031;-74
2021/03/01 06:22:46;;;;;;;19.63;9.70;;;;;;;-0.46;84.29;99469.81;4993382;28;20041;-75
2021/03/01 06:25:13;;;;;;;14.55;9.15;;;;;;;-0.13;84.22;99473.75;4993802;28;21245;-74
2021/03/01 06:27:58;;;;;;;17.13;9.15;;;;;;;0.03;83.13;99480.75;4994267;28;20054;-73
2021/03/01 06:30:28;;;;;;;20.10;8.70;;;;;;;0.27;82.06;99477.69;4992738;28;20046;-76
2021/03/01 06:33:04;;;;;;;19.48;9.35;;;;;;;-0.08;82.56;99492.00;4998403;28;20058;-82
2021/03/01 06:35:35;;;;;;;17.42;10.52;;;;;;;-0.19;83.08;99496.00;4996668;28;20029;-76
2021/03/01 06:38:39;;;;;;;17.45;10.27;;;;;;;-0.22;83.62;99501.75;4995549;28;20030;-80
2021/03/01 06:41:12;;;;;;;22.60;11.73;;;;;;;0.27;82.00;99501.06;4996391;28;20446;-76
2021/03/01 06:43:39;;;;;;;18.60;10.00;;;;;;;0.57;80.60;99504.47;4992923;28;20068;-77
2021/03/01 06:46:09;;;;;;;17.65;10.60;;;;;;;0.47;80.19;99504.81;4993282;28;20061;-77
2021/03/01 06:48:35;;;;;;;18.35;10.07;;;;;;;0.46;79.94;99508.50;4992895;28;20034;-75
2021/03/01 06:51:01;;;;;;;17.70;10.20;;;;;;;0.47;80.79;99502.13;4992741;28;20037;-75
2021/03/01 06:53:27;;;;;;;19.83;10.25;;;;;;;0.51;79.69;99503.38;4996025;28;20057;-76
2021/03/01 06:56:05;;;;;;;;;;;;;;;0.39;80.58;99516.53;4994559;28;20029;-77
2021/03/01 06:58:47;;;;;;;15.90;9.95;;;;;;;0.45;80.50;99509.53;4988697;28;19918;-74
2021/03/01 07:01:15;;;;;;;20.65;10.15;;;;;;;0.81;79.41;99499.53;4993193;28;20478;-75
2021/03/01 07:03:42;;;;;;;15.73;10.55;;;;;;;0.80;79.09;99519.41;4993131;28;20030;-76
2021/03/01 07:06:08;;;;;;;16.00;9.10;;;;;;;0.94;78.46;99518.47;4992762;28;20031;-79
2021/03/01 07:08:53;;;;;;;17.45;10.68;;;;;;;1.14;78.28;99517.78;4990982;28;20034;-80
2021/03/01 07:11:33;;;;;;;18.55;11.23;;;;;;;1.96;76.30;99527.59;4992714;28;20034;-78
2021/03/01 07:14:04;;;;;;;18.10;12.10;;;;;;;1.52;75.65;99519.91;4993762;28;20097;-84
2021/03/01 07:16:49;;;;;;;17.70;10.88;;;;;;;1.43;76.23;99531.03;4992940;28;20471;-80
2021/03/01 07:19:19;;;;;;;15.07;9.90;;;;;;;2.12;73.92;99531.81;4993269;28;20089;-79
2021/03/01 07:21:47;;;;;;;16.70;9.75;;;;;;;2.91;72.04;99549.03;4993083;28;20125;-82
2021/03/01 07:24:18;;;;;;;17.88;9.75;;;;;;;3.56;68.63;99545.44;4993671;28;20062;-83
2021/03/01 07:26:45;;;;;;;10.15;8.32;;;;;;;4.27;66.62;99543.53;4992833;28;20052;-87
2021/03/01 07:29:12;;;;;;;14.50;9.77;;;;;;;4.99;63.83;99555.81;4992444;28;20391;-87
2021/03/01 07:31:42;;;;;;;13.20;8.20;;;;;;;5.91;61.26;99555.00;4992582;28;20485;-85
2021/03/01 07:34:08;;;;;;;15.52;8.55;;;;;;;5.30;60.41;99557.66;4992919;28;20053;-87
2021/03/01 07:36:34;;;;;;;14.85;8.63;;;;;;;5.08;61.43;99543.63;4992377;28;20053;-86
2021/03/01 07:39:02;;;;;;;13.13;9.13;;;;;;;5.12;61.45;99555.72;4994139;28;20069;-82
2021/03/01 07:41:28;;;;;;;16.98;10.15;;;;;;;5.14;61.11;99561.75;4992036;28;20076;-74
2021/03/01 07:43:55;;;;;;;14.35;9.43;;;;;;;4.75;62.06;99565.56;4991128;28;20045;-77
2021/03/01 07:46:28;;;;;;;12.98;9.70;;;;;;;4.50;63.03;99561.13;4992135;28;20026;-77
2021/03/01 07:48:55;;;;;;;14.13;9.05;;;;;;;4.65;63.70;99553.53;4994218;28;20035;-75
2021/03/01 07:51:39;;;;;;;16.65;10.88;;;;;;;4.68;61.80;99553.94;4993006;28;20026;-75
2021/03/01 07:54:05;;;;;;;13.40;8.23;;;;;;;5.44;59.86;99558.38;4994916;28;20034;-79
2021/03/01 07:56:30;;;;;;;17.73;9.63;;;;;;;5.44;59.67;99563.78;5000401;28;20081;-79
2021/03/01 07:59:01;;;;;;;13.98;9.90;;;;;;;6.75;57.64;99557.69;4995098;28;20030;-75
2021/03/01 08:01:27;;;;;;;15.15;9.35;;;;;;;7.51;54.15;99555.00;4994462;28;20029;-77
2021/03/01 08:03:53;;;;;;;14.98;8.82;;;;;;;7.70;52.50;99560.34;4994795;28;20026;-82
2021/03/01 08:06:19;;;;;;;14.27;7.63;;;;;;;6.91;53.40;99561.66;4992645;28;20525;-76
2021/03/01 08:08:53;;;;;;;11.43;7.63;;;;;;;6.97;53.24;99561.53;4992459;28;20034;-78
2021/03/01 08:11:37;;;;;;;11.73;6.85;;;;;;;8.16;51.89;99559.44;4998364;28;20035;-80
2021/03/01 08:14:02;;;;;;;12.13;7.22;;;;;;;8.27;50.23;99556.69;4999621;28;20426;-81
2021/03/01 08:16:28;;;;;;;14.50;7.53;;;;;;;7.52;51.14;99570.25;4993709;28;20038;-75
2021/03/01 08:18:58;;;;;;;15.23;7.40;;;;;;;8.93;47.33;99558.84;4991236;28;20392;-76
2021/03/01 08:21:25;;;;;;;12.70;8.52;;;;;;;9.31;46.72;99563.63;4989375;28;20049;-77
2021/03/01 08:23:51;;;;;;;13.27;7.68;;;;;;;9.48;46.78;99564.47;4990849;28;20102;-76
2021/03/01 08:26:34;;;;;;;10.50;6.78;;;;;;;8.71;47.19;99560.63;4990682;28;20030;-78
2021/03/01 08:29:01;;;;;;;13.20;7.93;;;;;;;9.30;46.38;99561.97;4990826;28;20030;-77
2021/03/01 08:31:31;;;;;;;13.23;7.25;;;;;;;9.67;44.88;99554.94;4990511;28;20105;-78
2021/03/01 08:34:26;;;;;;;11.32;8.02;;;;;;;8.88;46.75;99552.47;4991130;28;20034;-76
2021/03/01 08:36:52;;;;;;;11.35;8.02;;;;;;;9.49;45.83;99555.16;4990968;28;20076;-77
2021/03/01 08:39:58;;;;;;;11.52;6.65;;;;;;;11.51;41.86;99548.63;4989772;28;20026;-75
2021/03/01 08:42:43;;;;;;;12.13;8.48;;;;;;;10.29;43.82;99542.97;4989690;28;20070;-77
2021/03/01 08:45:09;;;;;;;14.25;7.88;;;;;;;10.87;43.34;99540.34;4990893;28;20033;-76
2021/03/01 08:47:34;;;;;;;11.10;6.95;;;;;;;11.49;41.53;99543.41;4991117;28;20122;-78
2021/03/01 08:50:04;;;;;;;15.63;8.30;;;;;;;10.96;42.21;99543.47;4991100;28;20114;-78
2021/03/01 08:52:30;;;;;;;10.63;6.65;;;;;;;10.93;42.00;99546.72;4990908;28;20165;-76
2021/03/01 08:55:03;;;;;;;11.60;7.60;;;;;;;11.41;41.03;99546.63;4990773;28;20050;-77
2021/03/01 08:57:29;;;;;;;14.18;8.45;;;;;;;10.55;42.14;99532.09;4990951;28;20030;-75
2021/03/01 09:00:08;;;;;;;20.92;8.73;;;;;;;10.29;43.76;99548.44;4992104;28;20080;-75
2021/03/01 09:02:34;;;;;;;16.95;8.40;;;;;;;11.11;42.42;99543.63;4995123;28;20038;-76
2021/03/01 09:05:09;;;;;;;14.65;9.38;;;;;;;11.27;41.02;99545.41;5033165;28;20036;-79
2021/03/01 09:07:41;;;;;;;16.42;8.35;;;;;;;10.82;42.45;99536.75;4996439;28;20030;-76
2021/03/01 09:10:07;;;;;;;11.65;7.22;;;;;;;12.36;39.95;99540.13;4993156;28;20446;-75
2021/03/01 09:12:33;;;;;;;13.45;8.70;;;;;;;11.45;41.04;99547.75;4994367;28;20065;-75
2021/03/01 09:14:58;;;;;;;13.80;7.60;;;;;;;11.46;41.23;99548.59;5025532;28;20058;-74
2021/03/01 09:17:24;;;;;;;13.30;7.18;;;;;;;11.74;39.99;99557.34;4994277;28;20023;-76
2021/03/01 09:19:49;;;;;;;11.43;6.93;;;;;;;11.31;41.07;99553.94;4994339;28;20026;-78
2021/03/01 09:22:15;;;;;;;14.30;7.38;;;;;;;11.83;41.60;99538.47;4994932;28;20026;-76
2021/03/01 09:24:40;;;;;;;12.57;7.05;;;;;;;13.45;38.52;99547.25;4994045;28;20030;-78
2021/03/01 09:27:05;;;;;;;11.07;6.88;;;;;;;12.06;40.00;99550.97;4992173;28;20062;-76
2021/03/01 09:29:32;;;;;;;14.85;6.63;;;;;;;11.59;40.83;99542.66;4993914;28;20065;-75
2021/03/01 09:31:57;;;;;;;13.75;8.45;;;;;;;12.79;39.75;99542.47;4993868;28;20046;-74
2021/03/01 09:34:27;;;;;;;11.90;8.02;;;;;;;12.94;38.79;99549.91;4993991;28;20034;-77
2021/03/01 09:36:52;;;;;;;10.25;6.70;;;;;;;13.21;38.25;99549.75;4992490;28;20014;-76
2021/03/01 09:39:25;;;;;;;12.35;7.43;;;;;;;13.36;38.27;99556.06;4993918;28;20081;-77
2021/03/01 09:41:51;;;;;;;12.43;8.02;;;;;;;12.84;38.42;99547.16;4993789;28;20402;-80
2021/03/01 09:44:23;;;;;;;12.77;7.18;;;;;;;13.59;36.60;99549.22;4993852;28;20045;-77
2021/03/01 09:46:51;;;;;;;14.13;7.55;;;;;;;13.80;36.54;99542.59;4993721;28;20038;-76
2021/03/01 09:49:17;;;;;;;9.65;6.40;;;;;;;13.57;37.57;99548.63;4995745;28;20109;-76
2021/03/01 09:51:44;;;;;;;9.65;6.47;;;;;;;15.28;34.37;99543.63;4993485;28;20109;-77
2021/03/01 09:54:10;;;;;;;10.45;6.35;;;;;;;14.86;33.85;99539.47;4993485;28;20030;-77
2021/03/01 09:56:44;;;;;;;12.23;6.75;;;;;;;13.70;35.62;99550.84;4993408;28;20156;-79
2021/03/01 09:59:10;;;;;;;11.95;6.57;;;;;;;15.24;34.69;99534.28;4993358;28;20040;-76
2021/03/01 10:01:36;;;;;;;9.18;5.95;;;;;;;14.80;33.87;99537.03;4992068;28;20030;-76
2021/03/01 10:04:01;;;;;;;11.18;6.65;;;;;;;16.13;32.33;99539.31;4993402;28;20038;-76
2021/03/01 10:06:40;;;;;;;13.98;7.65;;;;;;;13.58;35.59;99542.06;4992724;28;20035;-75
2021/03/01 10:09:08;;;;;;;11.55;6.03;;;;;;;14.02;35.70;99542.28;4991589;28;20578;-76
2021/03/01 10:11:34;;;;;;;10.82;6.68;;;;;;;14.04;35.72;99539.22;4992223;28;20110;-76
2021/03/01 10:14:08;;;;;;;10.00;6.70;;;;;;;13.68;35.93;99538.47;4993214;28;20038;-75
2021/03/01 10:16:41;;;;;;;7.38;6.38;;;;;;;14.63;34.77;99534.63;4991209;28;20479;-76
2021/03/01 10:19:17;;;;;;;11.35;7.57;;;;;;;14.60;34.62;99528.91;4993477;28;20076;-77
2021/03/01 10:21:44;;;;;;;9.52;7.20;;;;;;;13.80;35.47;99526.09;4991767;28;20125;-76
2021/03/01 10:24:11;;;;;;;9.70;6.75;;;;;;;14.67;34.60;99518.38;4992942;28;20026;-76
2021/03/01 10:26:53;;;;;;;11.43;7.60;;;;;;;14.38;34.59;99518.22;4992904;28;20026;-75
2021/03/01 10:29:43;;;;;;;14.43;6.55;;;;;;;15.13;33.42;99525.25;4993128;28;20045;-76
2021/03/01 10:32:22;;;;;;;9.57;6.68;;;;;;;14.58;33.91;99520.06;4989893;28;20038;-76
2021/03/01 10:34:48;;;;;;;10.68;6.28;;;;;;;15.08;33.62;99513.44;4992629;28;20085;-75
2021/03/01 10:37:15;;;;;;;14.63;6.28;;;;;;;16.07;31.97;99510.91;4991487;28;20603;-75
2021/03/01 10:39:43;;;;;;;8.20;5.75;;;;;;;15.95;31.87;99504.97;4992524;28;20015;-74
2021/03/01 10:42:20;;;;;;;8.25;6.20;;;;;;;16.05;31.40;99509.56;4993121;28;20057;-74
2021/03/01 10:44:47;;;;;;;14.90;6.03;;;;;;;14.84;33.11;99505.91;4991615;28;20080;-74
2021/03/01 10:47:21;;;;;;;9.25;5.97;;;;;;;15.61;32.54;99506.16;4992468;28;20084;-75
2021/03/01 10:49:53;;;;;;;8.32;6.05;;;;;;;17.20;30.31;99511.13;4991736;28;20026;-74
2021/03/01 10:52:19;;;;;;;9.38;6.35;;;;;;;15.32;32.00;99497.81;4992668;28;20097;-74
2021/03/01 10:54:45;;;;;;;9.55;5.88;;;;;;;16.08;31.41;99487.72;4992616;28;21031;-76
2021/03/01 10:57:11;;;;;;;9.70;6.22;;;;;;;16.42;31.07;99495.03;4992669;28;20062;-74
2021/03/01 10:59:36;;;;;;;9.48;6.10;;;;;;;16.00;32.11;99490.31;4991448;28;20038;-75
2021/03/01 11:02:04;;;;;;;9.20;6.18;;;;;;;15.89;31.64;99486.81;4992690;28;20034;-75
2021/03/01 11:04:29;;;;;;;8.40;6.07;;;;;;;17.16;30.10;99487.94;4990941;28;20033;-75
2021/03/01 11:06:55;;;;;;;8.30;5.93;;;;;;;17.22;29.71;99483.97;4992359;28;20383;-74
2021/03/01 11:09:21;;;;;;;9.93;6.53;;;;;;;16.80;29.87;99474.66;4992471;28;20114;-77
2021/03/01 11:11:51;;;;;;;9.77;5.18;;;;;;;16.92;30.43;99476.97;4996701;28;20558;-79
2021/03/01 11:14:19;;;;;;;12.15;6.50;;;;;;;15.48;32.94;99458.81;4992261;28;20109;-75
2021/03/01 11:16:45;;;;;;;12.82;6.55;;;;;;;16.87;30.91;99458.53;4992158;28;20036;-74
2021/03/01 11:19:12;;;;;;;11.70;6.55;;;;;;;15.58;32.25;99455.13;4991981;28;20101;-75
2021/03/01 11:21:38;;;;;;;9.63;6.18;;;;;;;15.20;32.92;99456.00;4991918;28;20050;-75
2021/03/01 11:24:05;;;;;;;11.43;6.18;;;;;;;15.24;32.82;99446.06;4991674;28;20483;-74
2021/03/01 11:26:31;;;;;;;14.63;8.23;;;;;;;14.58;33.92;99435.53;4991720;28;20475;-75
2021/03/01 11:28:56;;;;;;;10.32;6.93;;;;;;;14.71;33.81;99426.63;4991806;28;20057;-74
2021/03/01 11:31:22;;;;;;;8.10;5.45;;;;;;;14.88;33.37;99432.56;4990602;28;20092;-74
2021/03/01 11:33:48;;;;;;;10.73;6.80;;;;;;;14.11;34.73;99425.00;4993534;28;20031;-81
2021/03/01 11:36:14;;;;;;;7.95;6.10;;;;;;;13.81;35.24;99416.88;4998452;28;20107;-79
2021/03/01 11:38:42;;;;;;;10.35;6.38;;;;;;;13.31;35.94;99426.88;4991762;28;20018;-79